Time;durP1;ratioP1;P1;durP2;ratioP2;P2;SDS_P1;SDS_P2;PMS_P1;PMS_P2;Temp;Humidity;BMP_temperature;BMP_pressure;BME280_temperature;BME280_humidity;BME280_pressure;Samples;Min_cycle;Max_cycle;Signal;HPM_P1;HPM_P2
2021/08/06 00:01:30;;;;;;;;;;;;;;;;;;10194567;28;19926;-63
2021/08/06 00:06:27;;;;;;;;;;;;;;;;;;10222139;28;19937;-63
2021/08/06 00:11:25;;;;;;;;;;;;;;;;;;10187154;28;20364;-63
2021/08/06 00:16:22;;;;;;;;;;;;;;;;;;10200917;28;20012;-63
2021/08/06 00:21:19;;;;;;;;;;;;;;;;;;10214126;28;19929;-64
2021/08/06 00:26:17;;;;;;;;;;;;;;;;;;10210426;28;19925;-65
2021/08/06 00:31:14;;;;;;;;;;;;;;;;;;10204568;28;19922;-65
2021/08/06 00:36:11;;;;;;;;;;;;;;;;;;10230423;28;19926;-64
2021/08/06 00:41:09;;;;;;;;;;;;;;;;;;10221496;28;19921;-63
2021/08/06 00:46:10;;;;;;;;;;;;;;;;;;10220297;28;19925;-64
2021/08/06 00:51:09;;;;;;;;;;;;;;;;;;10201663;28;20017;-64
2021/08/06 00:56:07;;;;;;;;;;;;;;;;;;10222354;28;20005;-65
2021/08/06 01:01:06;;;;;;;;;;;;;;;;;;10196855;28;20754;-64
2021/08/06 01:06:10;;;;;;;;;;;;;;;;;;10208871;28;19917;-65
2021/08/06 01:11:14;;;;;;;;;;;;;;;;;;10203699;28;19923;-65
2021/08/06 01:16:13;;;;;;;;;;;;;;;;;;10224609;28;19992;-65
2021/08/06 01:21:14;;;;;;;;;;;;;;;;;;10231347;28;19922;-66
2021/08/06 01:26:14;;;;;;;;;;;;;;;;;;10196360;28;19922;-64
2021/08/06 01:31:29;;;;;;;;;;;;;;;;;;10200773;28;20286;-64
2021/08/06 01:36:42;;;;;;;;;;;;;;;;;;10209163;28;20073;-65
2021/08/06 01:41:40;;;;;;;;;;;;;;;;;;10217389;28;20164;-64
2021/08/06 01:46:39;;;;;;;;;;;;;;;;;;10229239;28;20392;-65
2021/08/06 01:51:38;;;;;;;;;;;;;;;;;;10218893;28;19922;-64
2021/08/06 01:56:35;;;;;;;;;;;;;;;;;;10191401;28;19923;-64
2021/08/06 02:01:33;;;;;;;;;;;;;;;;;;10229590;28;20053;-63
2021/08/06 02:06:39;;;;;;;;;;;;;;;;;;10216685;28;19989;-64
2021/08/06 02:11:41;;;;;;;;;;;;;;;;;;10209780;28;20407;-65
2021/08/06 02:16:45;;;;;;;;;;;;;;;;;;10212253;28;20020;-63
2021/08/06 02:21:42;;;;;;;;;;;;;;;;;;10192431;28;20009;-64
2021/08/06 02:26:48;;;;;;;;;;;;;;;;;;10200819;28;19933;-63
2021/08/06 02:31:47;;;;;;;;;;;;;;;;;;10210075;28;19921;-63
2021/08/06 02:36:48;;;;;;;;;;;;;;;;;;10209413;28;20401;-63
2021/08/06 02:41:45;;;;;;;;;;;;;;;;;;10232815;28;19918;-64
2021/08/06 02:46:43;;;;;;;;;;;;;;;;;;10201957;28;19933;-61
2021/08/06 02:51:40;;;;;;;;;;;;;;;;;;10205924;28;19929;-63
2021/08/06 02:56:38;;;;;;;;;;;;;;;;;;10210182;28;20419;-64
2021/08/06 03:01:35;;;;;;;;;;;;;;;;;;10214656;28;20698;-65
2021/08/06 03:06:33;;;;;;;;;;;;;;;;;;10228939;28;19961;-65
2021/08/06 03:11:31;;;;;;;;;;;;;;;;;;10197226;28;19953;-64
2021/08/06 03:16:30;;;;;;;;;;;;;;;;;;10205225;28;19985;-65
2021/08/06 03:21:27;;;;;;;;;;;;;;;;;;10188982;28;20004;-65
2021/08/06 03:26:25;;;;;;;;;;;;;;;;;;10207512;28;19918;-66
2021/08/06 03:31:24;;;;;;;;;;;;;;;;;;10206744;28;20011;-67
2021/08/06 03:36:21;;;;;;;;;;;;;;;;;;10227975;28;19926;-67
2021/08/06 03:41:22;;;;;;;;;;;;;;;;;;10221078;28;19925;-67
2021/08/06 03:46:20;;;;;;;;;;;;;;;;;;10209191;28;19922;-67
2021/08/06 03:51:18;;;;;;;;;;;;;;;;;;10217335;28;20387;-67
2021/08/06 03:56:15;;;;;;;;;;;;;;;;;;10236221;28;19917;-65
2021/08/06 04:01:12;;;;;;;;;;;;;;;;;;10212837;28;20216;-65
2021/08/06 04:06:10;;;;;;;;;;;;;;;;;;10208729;28;20143;-65
2021/08/06 04:11:07;;;;;;;;;;;;;;;;;;10220191;28;19964;-66
2021/08/06 04:16:05;;;;;;;;;;;;;;;;;;10219827;28;20256;-66
2021/08/06 04:21:02;;;;;;;;;;;;;;;;;;10204597;28;19914;-66
2021/08/06 04:25:59;;;;;;;;;;;;;;;;;;10211023;28;20016;-66
2021/08/06 04:31:00;;;;;;;;;;;;;;;;;;10204587;28;19932;-65
2021/08/06 04:35:57;;;;;;;;;;;;;;;;;;10203443;28;19922;-66
2021/08/06 04:40:54;;;;;;;;;;;;;;;;;;10209415;28;19918;-66
2021/08/06 04:45:52;;;;;;;;;;;;;;;;;;10229146;28;20032;-65
2021/08/06 04:50:49;;;;;;;;;;;;;;;;;;10213396;28;20475;-66
2021/08/06 04:55:47;;;;;;;;;;;;;;;;;;10208216;28;20033;-65
2021/08/06 05:00:44;;;;;;;;;;;;;;;;;;10204322;28;20009;-65
2021/08/06 05:05:46;;;;;;;;;;;;;;;;;;10234711;28;19926;-64
2021/08/06 05:10:44;;;;;;;;;;;;;;;;;;10204756;28;19924;-64
2021/08/06 05:15:42;;;;;;;;;;;;;;;;;;10217928;28;19960;-63
2021/08/06 05:20:40;;;;;;;;;;;;;;;;;;10213386;28;20356;-64
2021/08/06 05:25:38;;;;;;;;;;;;;;;;;;10213026;28;20279;-64
2021/08/06 05:30:37;;;;;;;;;;;;;;;;;;10203170;28;19918;-65
2021/08/06 05:35:35;;;;;;;;;;;;;;;;;;10197646;28;20307;-65
2021/08/06 05:40:34;;;;;;;;;;;;;;;;;;10243205;28;20197;-65
2021/08/06 05:45:33;;;;;;;;;;;;;;;;;;10205730;28;19918;-66
2021/08/06 05:50:31;;;;;;;;;;;;;;;;;;10208286;28;19918;-66
2021/08/06 05:55:29;;;;;;;;;;;;;;;;;;10229806;28;19929;-65
2021/08/06 06:00:31;;;;;;;;;;;;;;;;;;10197783;28;19926;-66
2021/08/06 06:05:45;;;;;;;;;;;;;;;;;;10199921;28;19918;-66
2021/08/06 06:10:42;;;;;;;;;;;;;;;;;;10198506;28;20033;-64
2021/08/06 06:15:40;;;;;;;;;;;;;;;;;;10221451;28;19922;-65
2021/08/06 06:20:37;;;;;;;;;;;;;;;;;;10212299;28;20323;-66
2021/08/06 06:25:34;;;;;;;;;;;;;;;;;;10206719;28;19917;-66
2021/08/06 06:30:32;;;;;;;;;;;;;;;;;;10200837;28;19925;-64
2021/08/06 06:35:29;;;;;;;;;;;;;;;;;;10202191;28;19922;-64
2021/08/06 06:40:27;;;;;;;;;;;;;;;;;;10200539;28;19926;-64
2021/08/06 06:45:26;;;;;;;;;;;;;;;;;;10200928;28;20022;-65
2021/08/06 06:50:26;;;;;;;;;;;;;;;;;;10198061;28;20012;-65
2021/08/06 06:55:24;;;;;;;;;;;;;;;;;;10207016;28;20004;-64
2021/08/06 07:00:21;;;;;;;;;;;;;;;;;;10186163;28;19933;-65
2021/08/06 07:05:18;;;;;;;;;;;;;;;;;;10200854;28;19922;-65
2021/08/06 07:10:16;;;;;;;;;;;;;;;;;;10218732;28;20384;-63
2021/08/06 07:15:14;;;;;;;;;;;;;;;;;;10224551;28;20177;-62
2021/08/06 07:20:11;;;;;;;;;;;;;;;;;;10238802;28;19926;-63
2021/08/06 07:25:11;;;;;;;;;;;;;;;;;;10206616;28;19917;-62
2021/08/06 07:30:08;;;;;;;;;;;;;;;;;;10238639;28;20299;-62
2021/08/06 07:35:05;;;;;;;;;;;;;;;;;;10237150;28;19932;-61
2021/08/06 07:40:03;;;;;;;;;;;;;;;;;;10220615;28;19921;-62
2021/08/06 07:45:00;;;;;;;;;;;;;;;;;;10203309;28;20262;-62
2021/08/06 07:49:58;;;;;;;;;;;;;;;;;;10195143;28;19953;-62
2021/08/06 07:54:55;;;;;;;;;;;;;;;;;;10208143;28;20342;-62
2021/08/06 07:59:52;;;;;;;;;;;;;;;;;;10190642;28;19921;-63
2021/08/06 08:04:50;;;;;;;;;;;;;;;;;;10189313;28;19925;-62
2021/08/06 08:09:47;;;;;;;;;;;;;;;;;;10222746;28;20133;-63
2021/08/06 08:14:47;;;;;;;;;;;;;;;;;;10233520;28;20431;-62
2021/08/06 08:19:45;;;;;;;;;;;;;;;;;;10222569;28;20368;-61
2021/08/06 08:24:44;;;;;;;;;;;;;;;;;;10212459;28;19922;-59
2021/08/06 08:29:41;;;;;;;;;;;;;;;;;;10208502;28;19929;-61
2021/08/06 08:34:38;;;;;;;;;;;;;;;;;;10204947;28;19922;-60
2021/08/06 08:39:36;;;;;;;;;;;;;;;;;;10224719;28;19928;-61
2021/08/06 08:44:33;;;;;;;;;;;;;;;;;;10205115;28;20383;-61
2021/08/06 08:49:31;;;;;;;;;;;;;;;;;;10234094;28;19932;-62
2021/08/06 08:54:28;;;;;;;;;;;;;;;;;;10199709;28;19934;-61
2021/08/06 08:59:26;;;;;;;;;;;;;;;;;;10199982;28;19998;-61
2021/08/06 09:04:24;;;;;;;;;;;;;;;;;;10187637;28;20446;-61
2021/08/06 09:09:22;;;;;;;;;;;;;;;;;;10217066;28;19961;-61
2021/08/06 09:14:38;;;;;;;;;;;;;;;;;;10214139;28;20049;-61
2021/08/06 09:19:35;;;;;;;;;;;;;;;;;;10189523;28;20263;-61
2021/08/06 09:24:32;;;;;;;;;;;;;;;;;;10231559;22;19991;-63
2021/08/06 09:29:29;;;;;;;;;;;;;;;;;;10188869;28;19980;-63
2021/08/06 09:34:27;;;;;;;;;;;;;;;;;;10191122;28;19926;-64
2021/08/06 09:39:25;;;;;;;;;;;;;;;;;;10187880;28;19961;-65
2021/08/06 09:44:22;;;;;;;;;;;;;;;;;;10193949;28;20012;-66
2021/08/06 09:49:19;;;;;;;;;;;;;;;;;;10205181;28;20277;-66
2021/08/06 09:54:18;;;;;;;;;;;;;;;;;;10191121;28;20419;-64
2021/08/06 09:59:15;;;;;;;;;;;;;;;;;;10208612;28;20617;-64
2021/08/06 10:04:13;;;;;;;;;;;;;;;;;;10199872;28;20012;-66
2021/08/06 10:09:11;;;;;;;;;;;;;;;;;;10204133;28;19918;-65
2021/08/06 10:14:08;;;;;;;;;;;;;;;;;;10194180;28;19918;-65
2021/08/06 10:19:06;;;;;;;;;;;;;;;;;;10188357;28;19922;-66
2021/08/06 10:24:03;;;;;;;;;;;;;;;;;;10178982;28;19925;-69
2021/08/06 10:29:00;;;;;;;;;;;;;;;;;;10200441;28;20400;-66
2021/08/06 10:33:58;;;;;;;;;;;;;;;;;;10192999;28;19925;-65
2021/08/06 10:38:55;;;;;;;;;;;;;;;;;;10196787;28;20009;-66
2021/08/06 10:43:52;;;;;;;;;;;;;;;;;;10173897;28;19953;-65
2021/08/06 10:48:52;;;;;;;;;;;;;;;;;;10184783;28;20457;-64
2021/08/06 10:53:49;;;;;;;;;;;;;;;;;;10171930;28;19921;-66
2021/08/06 10:58:46;;;;;;;;;;;;;;;;;;10191406;28;19960;-64
2021/08/06 11:03:44;;;;;;;;;;;;;;;;;;10189013;28;19918;-64
2021/08/06 11:08:42;;;;;;;;;;;;;;;;;;10176071;28;19918;-66
2021/08/06 11:13:40;;;;;;;;;;;;;;;;;;10186647;28;19943;-65
2021/08/06 11:18:37;;;;;;;;;;;;;;;;;;10202575;28;20180;-64
2021/08/06 11:23:34;;;;;;;;;;;;;;;;;;10201081;28;19918;-66
2021/08/06 11:28:32;;;;;;;;;;;;;;;;;;10196127;28;19926;-64
2021/08/06 11:33:29;;;;;;;;;;;;;;;;;;10206039;28;19926;-65
2021/08/06 11:38:26;;;;;;;;;;;;;;;;;;10200768;28;19930;-64
2021/08/06 11:43:24;;;;;;;;;;;;;;;;;;10205465;28;19918;-65
2021/08/06 11:48:23;;;;;;;;;;;;;;;;;;10174386;28;19918;-65
2021/08/06 11:53:20;;;;;;;;;;;;;;;;;;10193632;28;19917;-65
2021/08/06 11:58:18;;;;;;;;;;;;;;;;;;10205637;28;19922;-64
2021/08/06 12:03:15;;;;;;;;;;;;;;;;;;10198630;28;19918;-64
2021/08/06 12:08:12;;;;;;;;;;;;;;;;;;10197320;28;19945;-64
2021/08/06 12:13:10;;;;;;;;;;;;;;;;;;10213896;28;19922;-65
2021/08/06 12:18:08;;;;;;;;;;;;;;;;;;10197712;28;20021;-63
2021/08/06 12:23:05;;;;;;;;;;;;;;;;;;10176246;28;19948;-64
2021/08/06 12:28:02;;;;;;;;;;;;;;;;;;10214416;28;19929;-63
2021/08/06 12:32:59;;;;;;;;;;;;;;;;;;10177869;28;19918;-62
2021/08/06 12:37:57;;;;;;;;;;;;;;;;;;10192068;28;20419;-65
2021/08/06 12:42:54;;;;;;;;;;;;;;;;;;10201910;28;20037;-66
2021/08/06 12:47:52;;;;;;;;;;;;;;;;;;10200311;28;19925;-64
2021/08/06 12:52:49;;;;;;;;;;;;;;;;;;10193365;28;19922;-65
2021/08/06 12:57:46;;;;;;;;;;;;;;;;;;10197613;28;20335;-65
2021/08/06 13:02:43;;;;;;;;;;;;;;;;;;10195429;28;20029;-64
2021/08/06 13:07:41;;;;;;;;;;;;;;;;;;10175521;28;19918;-64
2021/08/06 13:12:38;;;;;;;;;;;;;;;;;;10184654;28;20012;-64
2021/08/06 13:17:35;;;;;;;;;;;;;;;;;;10173908;28;19974;-64
2021/08/06 13:22:32;;;;;;;;;;;;;;;;;;10204269;28;19925;-65
2021/08/06 13:27:30;;;;;;;;;;;;;;;;;;10201560;28;19928;-64
2021/08/06 13:32:27;;;;;;;;;;;;;;;;;;10191533;28;20284;-64
2021/08/06 13:37:24;;;;;;;;;;;;;;;;;;10182562;28;19922;-65
2021/08/06 13:42:21;;;;;;;;;;;;;;;;;;10194833;28;19945;-66
2021/08/06 13:47:19;;;;;;;;;;;;;;;;;;10183949;28;19925;-66
2021/08/06 13:52:16;;;;;;;;;;;;;;;;;;10181979;28;19930;-64
2021/08/06 13:57:13;;;;;;;;;;;;;;;;;;10203460;28;20359;-63
2021/08/06 14:02:11;;;;;;;;;;;;;;;;;;10194189;28;19910;-64
2021/08/06 14:07:08;;;;;;;;;;;;;;;;;;10201592;28;19960;-65
2021/08/06 14:12:06;;;;;;;;;;;;;;;;;;10207304;28;19922;-66
2021/08/06 14:17:03;;;;;;;;;;;;;;;;;;10191535;28;19934;-66
2021/08/06 14:22:00;;;;;;;;;;;;;;;;;;10190431;28;19992;-66
2021/08/06 14:26:58;;;;;;;;;;;;;;;;;;10201149;28;20039;-66
2021/08/06 14:31:55;;;;;;;;;;;;;;;;;;10192872;28;20300;-65
2021/08/06 14:36:53;;;;;;;;;;;;;;;;;;10189169;28;19991;-65
2021/08/06 14:41:50;;;;;;;;;;;;;;;;;;10186514;28;20311;-66
2021/08/06 14:46:47;;;;;;;;;;;;;;;;;;10201798;28;21226;-66
2021/08/06 14:51:44;;;;;;;;;;;;;;;;;;10206340;28;19922;-67
2021/08/06 14:56:42;;;;;;;;;;;;;;;;;;10191020;28;19922;-69
2021/08/06 15:01:39;;;;;;;;;;;;;;;;;;10189438;28;20446;-67
2021/08/06 15:06:37;;;;;;;;;;;;;;;;;;10177693;28;19929;-66
2021/08/06 15:11:36;;;;;;;;;;;;;;;;;;10192691;28;20376;-68
2021/08/06 15:16:34;;;;;;;;;;;;;;;;;;10198271;28;19918;-68
2021/08/06 15:21:32;;;;;;;;;;;;;;;;;;10185703;28;20427;-65
2021/08/06 15:26:29;;;;;;;;;;;;;;;;;;10194437;28;20331;-65
2021/08/06 15:31:26;;;;;;;;;;;;;;;;;;10196261;28;19918;-66
2021/08/06 15:36:23;;;;;;;;;;;;;;;;;;10192463;28;19925;-66
2021/08/06 15:41:21;;;;;;;;;;;;;;;;;;10194852;28;19926;-67
2021/08/06 15:46:18;;;;;;;;;;;;;;;;;;10207747;28;20403;-67
2021/08/06 15:51:15;;;;;;;;;;;;;;;;;;10210363;28;19918;-69
2021/08/06 15:56:13;;;;;;;;;;;;;;;;;;10199769;28;20300;-66
2021/08/06 16:01:10;;;;;;;;;;;;;;;;;;10188119;28;19922;-66
2021/08/06 16:06:07;;;;;;;;;;;;;;;;;;10206771;28;20342;-67
2021/08/06 16:11:05;;;;;;;;;;;;;;;;;;10186532;28;19925;-67
2021/08/06 16:16:02;;;;;;;;;;;;;;;;;;10199275;28;19932;-69
2021/08/06 16:20:59;;;;;;;;;;;;;;;;;;10192815;28;20020;-67
2021/08/06 16:25:56;;;;;;;;;;;;;;;;;;10191819;28;19921;-67
2021/08/06 16:30:54;;;;;;;;;;;;;;;;;;10193980;28;19918;-67
2021/08/06 16:35:51;;;;;;;;;;;;;;;;;;10197640;28;19918;-69
2021/08/06 16:40:48;;;;;;;;;;;;;;;;;;10201413;28;19923;-69
2021/08/06 16:45:46;;;;;;;;;;;;;;;;;;10208388;28;19918;-69
2021/08/06 16:50:44;;;;;;;;;;;;;;;;;;10183475;28;19924;-68
2021/08/06 16:55:41;;;;;;;;;;;;;;;;;;10199783;28;20446;-67
2021/08/06 17:00:38;;;;;;;;;;;;;;;;;;10195530;28;19925;-67
2021/08/06 17:05:36;;;;;;;;;;;;;;;;;;10204756;28;20012;-69
2021/08/06 17:10:33;;;;;;;;;;;;;;;;;;10201494;28;19918;-68
2021/08/06 17:15:30;;;;;;;;;;;;;;;;;;10178639;28;19917;-69
2021/08/06 17:20:27;;;;;;;;;;;;;;;;;;10197474;28;20029;-69
2021/08/06 17:25:25;;;;;;;;;;;;;;;;;;10212227;28;19930;-67
2021/08/06 17:30:22;;;;;;;;;;;;;;;;;;10198796;28;19919;-67
2021/08/06 17:35:19;;;;;;;;;;;;;;;;;;10201108;28;20415;-67
2021/08/06 17:40:17;;;;;;;;;;;;;;;;;;10195252;28;20011;-64
2021/08/06 17:45:16;;;;;;;;;;;;;;;;;;10188506;28;20307;-68
2021/08/06 17:50:13;;;;;;;;;;;;;;;;;;10187905;28;19919;-67
2021/08/06 17:55:10;;;;;;;;;;;;;;;;;;10177894;28;20168;-67
2021/08/06 18:00:08;;;;;;;;;;;;;;;;;;10187632;28;20069;-68
2021/08/06 18:05:08;;;;;;;;;;;;;;;;;;10193370;28;19924;-67
2021/08/06 18:10:06;;;;;;;;;;;;;;;;;;10204388;28;19918;-68
2021/08/06 18:15:03;;;;;;;;;;;;;;;;;;10196062;28;19918;-66
2021/08/06 18:20:00;;;;;;;;;;;;;;;;;;10185991;28;20351;-67
2021/08/06 18:24:58;;;;;;;;;;;;;;;;;;10190910;28;19929;-66
2021/08/06 18:29:55;;;;;;;;;;;;;;;;;;10193331;28;20004;-66
2021/08/06 18:34:52;;;;;;;;;;;;;;;;;;10181740;28;19922;-67
2021/08/06 18:39:49;;;;;;;;;;;;;;;;;;10193100;28;19950;-67
2021/08/06 18:44:47;;;;;;;;;;;;;;;;;;10169347;28;20392;-68
2021/08/06 18:49:44;;;;;;;;;;;;;;;;;;10179907;28;19918;-68
2021/08/06 18:54:41;;;;;;;;;;;;;;;;;;10206685;28;20177;-70
2021/08/06 18:59:39;;;;;;;;;;;;;;;;;;10167132;28;20032;-71
2021/08/06 19:04:36;;;;;;;;;;;;;;;;;;10197670;28;19918;-67
2021/08/06 19:09:34;;;;;;;;;;;;;;;;;;10188715;28;20253;-69
2021/08/06 19:14:31;;;;;;;;;;;;;;;;;;10187159;28;19918;-68
2021/08/06 19:19:29;;;;;;;;;;;;;;;;;;10206728;28;19932;-67
2021/08/06 19:24:26;;;;;;;;;;;;;;;;;;10204050;28;19921;-66
2021/08/06 19:29:25;;;;;;;;;;;;;;;;;;10203182;28;20304;-66
2021/08/06 19:34:22;;;;;;;;;;;;;;;;;;10206897;28;19944;-64
2021/08/06 19:39:19;;;;;;;;;;;;;;;;;;10204664;28;19921;-67
2021/08/06 19:44:17;;;;;;;;;;;;;;;;;;10189146;28;19980;-65
2021/08/06 19:49:20;;;;;;;;;;;;;;;;;;10208111;28;19964;-68
2021/08/06 19:54:17;;;;;;;;;;;;;;;;;;10205410;28;19922;-67
2021/08/06 19:59:14;;;;;;;;;;;;;;;;;;10189691;28;19922;-67
2021/08/06 20:04:12;;;;;;;;;;;;;;;;;;10192302;28;20079;-65
2021/08/06 20:09:11;;;;;;;;;;;;;;;;;;10206123;28;19943;-69
2021/08/06 20:14:08;;;;;;;;;;;;;;;;;;10198014;28;20404;-73
2021/08/06 20:19:06;;;;;;;;;;;;;;;;;;10197734;28;19922;-68
2021/08/06 20:24:03;;;;;;;;;;;;;;;;;;10209295;28;19952;-67
2021/08/06 20:29:01;;;;;;;;;;;;;;;;;;10213984;28;19925;-66
2021/08/06 20:33:58;;;;;;;;;;;;;;;;;;10207546;28;19933;-66
2021/08/06 20:38:55;;;;;;;;;;;;;;;;;;10209364;28;19949;-65
2021/08/06 20:43:53;;;;;;;;;;;;;;;;;;10203524;28;19925;-68
2021/08/06 20:48:50;;;;;;;;;;;;;;;;;;10200248;28;19921;-67
2021/08/06 20:53:47;;;;;;;;;;;;;;;;;;10215664;28;20280;-69
2021/08/06 20:58:45;;;;;;;;;;;;;;;;;;10193824;28;19922;-67
2021/08/06 21:03:42;;;;;;;;;;;;;;;;;;10204974;28;19925;-66
2021/08/06 21:08:39;;;;;;;;;;;;;;;;;;10201477;28;19917;-66
2021/08/06 21:13:37;;;;;;;;;;;;;;;;;;10207654;28;19922;-68
2021/08/06 21:18:34;;;;;;;;;;;;;;;;;;10191262;28;19922;-66
2021/08/06 21:23:31;;;;;;;;;;;;;;;;;;10189009;28;20299;-69
2021/08/06 21:28:33;;;;;;;;;;;;;;;;;;10218217;28;20008;-68
2021/08/06 21:33:31;;;;;;;;;;;;;;;;;;10216066;28;19922;-69
2021/08/06 21:38:28;;;;;;;;;;;;;;;;;;10202036;28;20434;-68
2021/08/06 21:43:26;;;;;;;;;;;;;;;;;;10225768;28;19973;-67
2021/08/06 21:48:23;;;;;;;;;;;;;;;;;;10197597;28;19929;-69
2021/08/06 21:53:25;;;;;;;;;;;;;;;;;;10211010;28;19918;-69
2021/08/06 21:58:22;;;;;;;;;;;;;;;;;;10215222;28;20313;-70
2021/08/06 22:03:19;;;;;;;;;;;;;;;;;;10180749;28;19926;-69
2021/08/06 22:08:17;;;;;;;;;;;;;;;;;;10210369;28;19981;-67
2021/08/06 22:13:14;;;;;;;;;;;;;;;;;;10216167;28;19928;-69
2021/08/06 22:18:11;;;;;;;;;;;;;;;;;;10198232;28;19919;-70
2021/08/06 22:23:08;;;;;;;;;;;;;;;;;;10203840;28;19918;-68
2021/08/06 22:28:06;;;;;;;;;;;;;;;;;;10201781;28;19940;-69
2021/08/06 22:33:03;;;;;;;;;;;;;;;;;;10206999;28;19913;-70
2021/08/06 22:38:03;;;;;;;;;;;;;;;;;;10210843;28;19925;-71
2021/08/06 22:43:01;;;;;;;;;;;;;;;;;;10187409;28;19910;-68
2021/08/06 22:47:58;;;;;;;;;;;;;;;;;;10216678;28;19914;-69
2021/08/06 22:52:55;;;;;;;;;;;;;;;;;;10197379;28;20012;-68
2021/08/06 22:57:53;;;;;;;;;;;;;;;;;;10200996;28;19918;-68
2021/08/06 23:02:50;;;;;;;;;;;;;;;;;;10197240;28;19926;-69
2021/08/06 23:07:47;;;;;;;;;;;;;;;;;;10187424;28;19918;-70
2021/08/06 23:12:45;;;;;;;;;;;;;;;;;;10209933;28;19922;-68
2021/08/06 23:17:42;;;;;;;;;;;;;;;;;;10209491;28;19964;-70
2021/08/06 23:22:39;;;;;;;;;;;;;;;;;;10205112;28;20335;-71
2021/08/06 23:27:36;;;;;;;;;;;;;;;;;;10212200;28;19922;-69
2021/08/06 23:32:34;;;;;;;;;;;;;;;;;;10203574;28;19933;-69
2021/08/06 23:37:31;;;;;;;;;;;;;;;;;;10213334;28;19921;-68
2021/08/06 23:42:28;;;;;;;;;;;;;;;;;;10212479;28;20624;-68
2021/08/06 23:47:25;;;;;;;;;;;;;;;;;;10221880;28;19945;-67
2021/08/06 23:52:23;;;;;;;;;;;;;;;;;;10218085;28;19925;-68
2021/08/06 23:57:20;;;;;;;;;;;;;;;;;;10211086;28;19922;-68
